Time;durP1;ratioP1;P1;durP2;ratioP2;P2;SDS_P1;SDS_P2;PMS_P1;PMS_P2;Temp;Humidity;BMP_temperature;BMP_pressure;BME280_temperature;BME280_humidity;BME280_pressure;Samples;Min_cycle;Max_cycle;Signal;HPM_P1;HPM_P2
2022/12/27 00:01:28;;;;;;;;;;;;;;;8.12;56.22;101229.78;4963803;28;6840;-74
2022/12/27 00:03:54;;;;;;;;;;;;;;;8.12;55.52;101232.34;4964995;28;7191;-73
2022/12/27 00:06:24;;;;;;;;;;;;;;;8.12;56.46;101227.22;4993082;28;6768;-74
2022/12/27 00:08:51;;;;;;;;;;;;;;;8.12;55.97;101240.00;4963909;28;6796;-74
2022/12/27 00:11:22;;;;;;;;;;;;;;;8.12;55.36;101242.56;4963149;28;6851;-74
2022/12/27 00:13:47;;;;;;;;;;;;;;;8.12;55.39;101242.56;4964388;28;6969;-73
2022/12/27 00:16:16;;;;;;;;;;;;;;;8.12;55.33;101237.44;4972372;28;6952;-74
2022/12/27 00:18:42;;;;;;;;;;;;;;;8.12;55.56;101242.56;4990336;28;6963;-74
2022/12/27 00:21:11;;;;;;;;;;;;;;;8.11;56.26;101245.88;4979861;28;6952;-73
2022/12/27 00:23:45;;;;;;;;;;;;;;;8.15;57.00;101247.88;4956594;28;7231;-73
2022/12/27 00:26:17;;;;;;;;;;;;;;;8.16;57.04;101246.19;4979462;28;7360;-74
2022/12/27 00:28:43;;;;;;;;;;;;;;;8.19;56.03;101246.44;4978572;28;6984;-73
2022/12/27 00:31:09;;;;;;;;;;;;;;;8.20;56.38;101249.06;4979778;28;7261;-74
2022/12/27 00:33:38;;;;;;;;;;;;;;;8.21;56.76;101239.75;4959597;28;6788;-74
2022/12/27 00:36:07;;;;;;;;;;;;;;;8.22;55.86;101243.22;4962833;28;6788;-74
2022/12/27 00:38:34;;;;;;;;;;;;;;;8.25;56.57;101245.97;4977320;28;7239;-72
2022/12/27 00:41:01;;;;;;;;;;;;;;;8.25;55.99;101251.06;4979453;28;6968;-74
2022/12/27 00:43:26;;;;;;;;;;;;;;;8.25;56.38;101251.06;4977601;28;7017;-73
2022/12/27 00:45:52;;;;;;;;;;;;;;;8.27;57.40;101250.41;4977534;28;6956;-74
2022/12/27 00:48:18;;;;;;;;;;;;;;;8.27;56.49;101241.84;4989431;28;7025;-74
2022/12/27 00:50:44;;;;;;;;;;;;;;;8.29;56.32;101245.41;4965331;28;6877;-74
2022/12/27 00:53:11;;;;;;;;;;;;;;;8.31;56.74;101244.72;4959113;28;6800;-74
2022/12/27 00:55:37;;;;;;;;;;;;;;;8.33;56.32;101249.97;4987457;28;6784;-72
2022/12/27 00:58:03;;;;;;;;;;;;;;;8.33;56.36;101258.50;4956335;28;6784;-74
2022/12/27 01:00:29;;;;;;;;;;;;;;;8.34;56.58;101259.41;4972959;28;7050;-73
2022/12/27 01:02:55;;;;;;;;;;;;;;;8.36;57.36;101260.38;4954823;28;6792;-73
2022/12/27 01:05:21;;;;;;;;;;;;;;;8.33;56.90;101255.06;4959835;28;7033;-73
2022/12/27 01:07:48;;;;;;;;;;;;;;;8.37;57.05;101264.72;4957099;28;7081;-74
2022/12/27 01:10:14;;;;;;;;;;;;;;;8.38;55.84;101261.38;4973958;28;6848;-74
2022/12/27 01:12:40;;;;;;;;;;;;;;;8.39;56.54;101264.81;4987837;28;6795;-74
2022/12/27 01:15:08;;;;;;;;;;;;;;;8.37;56.58;101269.81;4969235;28;6768;-73
2022/12/27 01:17:33;;;;;;;;;;;;;;;8.39;56.05;101269.94;4959154;28;7337;-73
2022/12/27 01:19:59;;;;;;;;;;;;;;;8.40;56.83;101270.06;4975113;28;7357;-73
2022/12/27 01:22:25;;;;;;;;;;;;;;;8.40;57.11;101270.06;4963764;28;6840;-74
2022/12/27 01:24:51;;;;;;;;;;;;;;;8.40;56.91;101275.16;4987653;28;6825;-74
2022/12/27 01:27:16;;;;;;;;;;;;;;;8.43;56.26;101275.38;4959162;28;6833;-72
2022/12/27 01:29:42;;;;;;;;;;;;;;;8.43;57.30;101271.91;4974521;28;6828;-74
2022/12/27 01:32:08;;;;;;;;;;;;;;;8.44;57.01;101277.16;4962346;28;7323;-72
2022/12/27 01:34:33;;;;;;;;;;;;;;;8.47;57.51;101285.03;4964946;28;7079;-74
2022/12/27 01:36:59;;;;;;;;;;;;;;;8.48;56.28;101280.81;4990374;28;6983;-73
2022/12/27 01:39:25;;;;;;;;;;;;;;;8.47;56.86;101292.69;4964040;28;6812;-74
2022/12/27 01:44:51;;;;;;;;;;;;;;;8.46;56.98;101290.91;4965929;28;6805;-73
2022/12/27 01:47:39;;;;;;;;;;;;;;;8.48;57.26;101299.56;4990800;28;6947;-73
2022/12/27 01:50:25;;;;;;;;;;;;;;;8.48;56.57;101301.25;4983189;28;6804;-73
2022/12/27 01:53:20;;;;;;;;;;;;;;;8.50;57.56;101303.88;4980987;28;6820;-73
2022/12/27 01:56:04;;;;;;;;;;;;;;;8.52;57.22;101305.81;4966134;28;7031;-72
2022/12/27 01:59:00;;;;;;;;;;;;;;;8.50;56.72;101309.00;4959959;28;6797;-73
2022/12/27 02:01:33;;;;;;;;;;;;;;;8.47;57.42;101313.13;4980006;28;7011;-73
2022/12/27 02:04:11;;;;;;;;;;;;;;;8.51;56.38;101313.41;4965876;28;6808;-74
2022/12/27 02:06:39;;;;;;;;;;;;;;;8.50;57.30;101317.56;4987835;28;8293;-72
2022/12/27 02:09:13;;;;;;;;;;;;;;;8.55;56.99;101325.59;4987183;28;6796;-72
2022/12/27 02:11:53;;;;;;;;;;;;;;;8.52;57.02;101322.84;4957836;28;6788;-73
2022/12/27 02:14:45;;;;;;;;;;;;;;;8.51;57.91;101321.94;4965784;28;6812;-74
2022/12/27 02:17:18;;;;;;;;;;;;;;;8.50;57.41;101332.00;4983288;28;7004;-73
2022/12/27 02:20:21;;;;;;;;;;;;;;;8.52;56.70;101326.25;4982123;28;6819;-74
2022/12/27 02:26:36;;;;;;;;;;;;;;;8.52;57.57;101333.94;4953101;28;6796;-74
2022/12/27 02:29:25;;;;;;;;;;;;;;;8.55;57.33;101333.25;4951302;28;6812;-73
2022/12/27 02:32:34;;;;;;;;;;;;;;;8.56;57.21;101340.16;4961141;28;6997;-72
2022/12/27 02:35:25;;;;;;;;;;;;;;;8.56;56.97;101332.47;4938639;28;6848;-73
2022/12/27 02:38:07;;;;;;;;;;;;;;;8.51;57.75;101334.72;4955273;28;6820;-73
2022/12/27 02:53:07;;;;;;;;;;;;;;;8.54;57.24;101340.03;4888322;28;7223;-73
2022/12/27 03:03:19;;;;;;;;;;;;;;;8.52;58.14;101340.72;4956241;28;6793;-73
2022/12/27 03:06:38;;;;;;;;;;;;;;;8.50;58.06;101327.78;4978868;28;6800;-72
2022/12/27 03:09:08;;;;;;;;;;;;;;;8.48;57.10;101330.22;4953655;28;6899;-74
2022/12/27 03:17:42;;;;;;;;;;;;;;;8.54;58.12;101334.03;4974233;28;7658;-74
2022/12/27 03:25:51;;;;;;;;;;;;;;;8.53;58.54;101327.16;4965403;28;6800;-73
2022/12/27 03:34:38;;;;;;;;;;;;;;;8.55;57.63;101346.03;4963887;28;6854;-72
2022/12/27 03:43:35;;;;;;;;;;;;;;;8.52;57.33;101351.81;4959711;28;6777;-72
2022/12/27 03:46:32;;;;;;;;;;;;;;;8.55;57.89;101349.50;4978100;28;6784;-73
2022/12/27 03:49:25;;;;;;;;;;;;;;;8.54;57.98;101345.13;4962956;28;6808;-73
2022/12/27 03:52:33;;;;;;;;;;;;;;;8.53;57.75;101342.50;4960609;28;6857;-74
2022/12/27 03:55:01;;;;;;;;;;;;;;;8.53;58.04;101345.03;4979723;28;6807;-71
2022/12/27 03:57:28;;;;;;;;;;;;;;;8.54;58.18;101354.47;4981898;28;6957;-71
2022/12/27 03:59:55;;;;;;;;;;;;;;;8.57;58.48;101347.03;4965361;28;7351;-71
2022/12/27 04:02:20;;;;;;;;;;;;;;;8.57;57.75;101347.03;4943311;28;6788;-71
2022/12/27 04:04:47;;;;;;;;;;;;;;;8.59;58.51;101355.69;4967928;28;6965;-71
2022/12/27 04:07:13;;;;;;;;;;;;;;;8.56;57.72;101351.28;4973589;28;6792;-71
2022/12/27 04:37:04;;;;;;;;;;;;;;;8.63;57.17;101347.47;4984709;28;6796;-72
2022/12/27 04:39:30;;;;;;;;;;;;;;;8.65;57.69;101355.25;4976125;28;7011;-72
2022/12/27 04:56:06;;;;;;;;;;;;;;;8.64;58.36;101361.13;4961417;28;6808;-71
2022/12/27 04:58:32;;;;;;;;;;;;;;;8.65;57.41;101370.59;4978853;28;6994;-71
2022/12/27 05:03:52;;;;;;;;;;;;;;;8.61;57.26;101372.03;4952407;28;6804;-71
2022/12/27 05:06:18;;;;;;;;;;;;;;;8.58;57.78;101379.47;4958830;28;6808;-71
2022/12/27 05:14:14;;;;;;;;;;;;;;;8.49;57.27;101372.00;4954992;28;6796;-71
2022/12/27 05:16:43;;;;;;;;;;;;;;;8.51;58.10;101367.91;4959201;28;6800;-71
2022/12/27 05:19:12;;;;;;;;;;;;;;;8.51;57.77;101365.38;4954678;28;6796;-71
2022/12/27 05:27:12;;;;;;;;;;;;;;;8.45;57.89;101380.22;4975688;28;6793;-71
2022/12/27 05:29:38;;;;;;;;;;;;;;;8.44;57.73;101378.44;4959846;28;6784;-71
2022/12/27 05:32:03;;;;;;;;;;;;;;;8.45;58.22;101378.56;4961113;28;7290;-71
2022/12/27 05:34:29;;;;;;;;;;;;;;;8.45;58.39;101390.44;4976165;28;7844;-71
2022/12/27 05:36:55;;;;;;;;;;;;;;;8.45;57.88;101391.34;4955679;28;7707;-71
2022/12/27 05:39:20;;;;;;;;;;;;;;;8.42;57.30;101391.13;4963279;28;6788;-71
2022/12/27 05:41:46;;;;;;;;;;;;;;;8.43;58.59;101392.00;4985843;28;7262;-71
2022/12/27 05:44:11;;;;;;;;;;;;;;;8.42;58.10;101391.13;4957597;28;6912;-71
2022/12/27 05:46:37;;;;;;;;;;;;;;;8.41;57.17;101398.66;4957284;28;6780;-71
2022/12/27 05:49:03;;;;;;;;;;;;;;;8.39;57.62;101400.22;4960447;28;6772;-71
2022/12/27 05:51:28;;;;;;;;;;;;;;;8.34;57.25;101395.66;4980044;28;6782;-71
2022/12/27 05:53:54;;;;;;;;;;;;;;;8.36;58.71;101406.00;4963658;28;6760;-72
2022/12/27 05:56:21;;;;;;;;;;;;;;;8.37;58.33;101404.34;4955575;28;7364;-71
2022/12/27 05:58:47;;;;;;;;;;;;;;;8.38;57.41;101409.53;4958631;28;7745;-71
2022/12/27 06:01:16;;;;;;;;;;;;;;;8.37;58.01;101412.00;4961196;28;6800;-71
2022/12/27 06:03:42;;;;;;;;;;;;;;;8.35;57.18;101417.00;4975641;28;7016;-71
2022/12/27 06:06:09;;;;;;;;;;;;;;;8.33;57.33;101405.78;4946776;28;9519;-71
2022/12/27 06:08:36;;;;;;;;;;;;;;;8.31;57.78;101417.56;4981496;28;7595;-71
2022/12/27 06:11:07;;;;;;;;;;;;;;;8.29;58.92;101419.09;4949616;28;7513;-71
2022/12/27 06:13:33;;;;;;;;;;;;;;;8.27;58.04;101425.75;4978730;28;7632;-71
2022/12/27 06:16:01;;;;;;;;;;;;;;;8.29;58.88;101417.44;4942191;28;7159;-71
2022/12/27 06:18:33;;;;;;;;;;;;;;;8.29;57.45;101424.19;4960193;28;6780;-71
2022/12/27 06:21:10;;;;;;;;;;;;;;;8.28;58.85;101440.28;4960153;28;6860;-71
2022/12/27 06:23:38;;;;;;;;;;;;;;;8.27;58.43;101436.88;4962448;28;6796;-71
2022/12/27 06:26:16;;;;;;;;;;;;;;;8.25;57.93;101440.94;4990222;28;6807;-71
2022/12/27 06:28:42;;;;;;;;;;;;;;;8.23;58.46;101445.06;4960469;28;7133;-71
2022/12/27 06:31:08;;;;;;;;;;;;;;;8.24;58.23;101445.97;4954893;28;6792;-71
2022/12/27 06:33:34;;;;;;;;;;;;;;;8.23;58.31;101444.19;4943455;28;6998;-71
2022/12/27 06:36:10;;;;;;;;;;;;;;;8.23;58.98;101434.84;4944909;28;7042;-71
2022/12/27 06:38:37;;;;;;;;;;;;;;;8.23;58.53;101432.28;4956059;28;7056;-72
2022/12/27 06:41:09;;;;;;;;;;;;;;;8.26;59.03;101436.75;4958517;28;6800;-71
2022/12/27 06:43:35;;;;;;;;;;;;;;;8.33;58.47;101436.44;4943930;28;7120;-71
2022/12/27 06:46:08;;;;;;;;;;;;;;;8.42;59.49;101434.56;4963049;28;6796;-72
2022/12/27 06:48:33;;;;;;;;;;;;;;;8.51;59.64;101431.81;4980116;28;6853;-72
2022/12/27 06:51:04;;;;;;;;;;;;;;;8.57;59.34;101428.81;4963148;28;6780;-71
2022/12/27 06:53:29;;;;;;;;;;;;;;;8.55;58.23;101438.03;4948874;28;7007;-71
2022/12/27 06:55:55;;;;;;;;;;;;;;;8.55;58.35;101438.94;4955817;28;6846;-71
2022/12/27 06:58:21;;;;;;;;;;;;;;;8.54;58.61;101436.25;4977930;28;7734;-71
2022/12/27 07:00:46;;;;;;;;;;;;;;;8.52;58.36;101442.94;4983146;28;6942;-71
2022/12/27 07:03:12;;;;;;;;;;;;;;;8.48;58.96;101437.53;4990541;28;7181;-71
2022/12/27 07:05:38;;;;;;;;;;;;;;;8.46;58.46;101449.31;4989798;28;7583;-72
2022/12/27 07:08:04;;;;;;;;;;;;;;;8.45;57.90;101457.75;4958722;28;7130;-71
2022/12/27 07:10:30;;;;;;;;;;;;;;;8.45;58.36;101457.75;4962087;28;6780;-71
2022/12/27 07:12:56;;;;;;;;;;;;;;;8.45;58.31;101462.88;4988334;28;7027;-72
2022/12/27 07:15:23;;;;;;;;;;;;;;;8.46;57.55;101463.78;4960344;28;6899;-71
2022/12/27 07:17:49;;;;;;;;;;;;;;;8.44;58.58;101458.53;4996633;28;8498;-71
2022/12/27 07:20:14;;;;;;;;;;;;;;;8.42;58.09;101467.75;4963884;28;7385;-71
2022/12/27 07:22:40;;;;;;;;;;;;;;;8.40;58.69;101465.88;4958384;28;7078;-71
2022/12/27 07:25:06;;;;;;;;;;;;;;;8.39;58.15;101467.50;4956092;28;6926;-71
2022/12/27 07:27:33;;;;;;;;;;;;;;;8.36;58.93;101467.31;4958178;28;6914;-71
2022/12/27 07:29:59;;;;;;;;;;;;;;;8.33;57.54;101473.06;4963131;28;6812;-71
2022/12/27 07:32:25;;;;;;;;;;;;;;;8.31;57.90;101476.31;4957820;28;8056;-71
2022/12/27 07:34:50;;;;;;;;;;;;;;;8.29;57.73;101475.28;4958667;28;7066;-72
2022/12/27 07:37:16;;;;;;;;;;;;;;;8.27;58.57;101472.63;4959668;28;6847;-71
2022/12/27 07:39:43;;;;;;;;;;;;;;;8.25;57.57;101480.94;4958140;28;7372;-72
2022/12/27 07:42:08;;;;;;;;;;;;;;;8.24;58.98;101491.94;4961213;28;6864;-71
2022/12/27 07:44:34;;;;;;;;;;;;;;;8.23;58.38;101491.03;4960746;28;6772;-71
2022/12/27 07:47:00;;;;;;;;;;;;;;;8.24;57.68;101497.06;4988791;28;6886;-71
2022/12/27 07:49:25;;;;;;;;;;;;;;;8.25;58.81;101499.69;4978806;28;6848;-71
2022/12/27 07:51:51;;;;;;;;;;;;;;;8.26;58.76;101493.84;4960134;28;6772;-71
2022/12/27 07:54:17;;;;;;;;;;;;;;;8.28;58.31;101497.41;4960238;28;6788;-71
2022/12/27 07:56:42;;;;;;;;;;;;;;;8.32;58.82;101506.19;4957989;28;7884;-71
2022/12/27 07:59:12;;;;;;;;;;;;;;;8.36;58.56;101497.97;4980569;28;6844;-71
2022/12/27 08:04:22;;;;;;;;;;;;;;;8.44;59.33;101490.84;4962423;28;6800;-70
2022/12/27 08:06:48;;;;;;;;;;;;;;;8.49;58.15;101502.31;4994381;28;6954;-71
2022/12/27 08:09:23;;;;;;;;;;;;;;;8.53;58.23;101499.22;4956460;28;6844;-71
2022/12/27 08:11:48;;;;;;;;;;;;;;;8.57;58.75;101508.03;4953308;28;8777;-71
2022/12/27 08:14:14;;;;;;;;;;;;;;;8.58;59.27;101507.25;4956592;28;6780;-71
2022/12/27 08:16:39;;;;;;;;;;;;;;;8.60;58.04;101503.16;4947793;28;6859;-70
2022/12/27 08:19:05;;;;;;;;;;;;;;;8.60;58.04;101504.03;4990832;28;6777;-71
2022/12/27 08:21:30;;;;;;;;;;;;;;;8.63;58.85;101511.03;4959257;28;6903;-71
2022/12/27 08:23:56;;;;;;;;;;;;;;;8.62;58.73;101514.38;4950061;28;7171;-71
2022/12/27 08:26:22;;;;;;;;;;;;;;;8.64;58.42;101520.47;4977383;28;6848;-71
2022/12/27 08:28:47;;;;;;;;;;;;;;;8.64;58.71;101515.38;4988972;28;6819;-71
2022/12/27 08:31:13;;;;;;;;;;;;;;;8.67;58.58;101509.59;4952588;28;6835;-71
2022/12/27 08:33:40;;;;;;;;;;;;;;;8.69;58.45;101524.28;4942972;28;6784;-71
2022/12/27 08:36:09;;;;;;;;;;;;;;;8.71;58.72;101509.03;4942902;28;7154;-71
2022/12/27 08:38:35;;;;;;;;;;;;;;;8.73;59.32;101516.03;4943025;28;6800;-71
2022/12/27 08:41:01;;;;;;;;;;;;;;;8.75;58.56;101514.50;4943150;28;6882;-71
2022/12/27 08:43:28;;;;;;;;;;;;;;;8.78;59.03;101520.59;4938314;28;7356;-72
2022/12/27 08:46:03;;;;;;;;;;;;;;;8.81;58.16;101520.84;4971425;28;6796;-71
2022/12/27 08:48:32;;;;;;;;;;;;;;;8.84;58.27;101519.41;4956883;28;6965;-71
2022/12/27 08:51:06;;;;;;;;;;;;;;;8.90;58.49;101529.19;4944462;28;7111;-71
2022/12/27 08:53:32;;;;;;;;;;;;;;;8.96;59.21;101528.72;4971721;28;6963;-72
2022/12/27 08:55:58;;;;;;;;;;;;;;;9.03;58.20;101528.41;4974791;28;6792;-71
2022/12/27 08:58:23;;;;;;;;;;;;;;;9.11;59.29;101524.72;4973623;28;7968;-71
2022/12/27 09:00:49;;;;;;;;;;;;;;;9.25;59.33;101522.28;4944108;28;6780;-71
2022/12/27 09:03:18;;;;;;;;;;;;;;;9.36;59.13;101521.34;4959924;28;6979;-71
2022/12/27 09:05:45;;;;;;;;;;;;;;;9.45;58.05;101528.78;4959401;28;6848;-71
2022/12/27 09:08:11;;;;;;;;;;;;;;;9.56;58.46;101542.34;4955138;28;6879;-71
2022/12/27 09:10:37;;;;;;;;;;;;;;;9.66;58.58;101533.66;4957759;28;6947;-71
2022/12/27 09:13:03;;;;;;;;;;;;;;;9.72;58.03;101534.06;4976834;28;7221;-71
2022/12/27 09:15:29;;;;;;;;;;;;;;;9.76;57.95;101528.41;4952172;28;6852;-71
2022/12/27 09:17:55;;;;;;;;;;;;;;;9.78;57.77;101525.91;4960132;28;10064;-71
2022/12/27 09:20:20;;;;;;;;;;;;;;;9.80;57.44;101520.13;4961138;28;6824;-71
2022/12/27 09:22:46;;;;;;;;;;;;;;;9.81;57.34;101527.03;4959810;28;6764;-71
2022/12/27 09:25:12;;;;;;;;;;;;;;;9.81;57.78;101521.91;4954629;28;6769;-73
2022/12/27 09:27:37;;;;;;;;;;;;;;;9.82;57.69;101522.81;4951060;28;7178;-71
2022/12/27 09:30:06;;;;;;;;;;;;;;;9.85;57.75;101528.13;4982335;28;7193;-71
2022/12/27 09:32:32;;;;;;;;;;;;;;;9.86;57.81;101527.34;4962200;28;7190;-71
2022/12/27 09:34:58;;;;;;;;;;;;;;;9.90;58.01;101520.75;4981153;28;7211;-71
2022/12/27 09:37:23;;;;;;;;;;;;;;;9.93;57.16;101521.88;4964216;28;6761;-71
2022/12/27 09:39:50;;;;;;;;;;;;;;;9.95;57.37;101520.28;4963619;28;7865;-71
2022/12/27 09:42:40;;;;;;;;;;;;;;;9.99;57.76;101518.84;4963642;28;6784;-72
2022/12/27 09:45:19;;;;;;;;;;;;;;;10.04;57.57;101520.03;4959359;28;6808;-72
2022/12/27 09:48:01;;;;;;;;;;;;;;;10.10;57.94;101524.69;4961103;28;6812;-71
2022/12/27 09:50:34;;;;;;;;;;;;;;;10.13;57.69;101520.66;4962213;28;7004;-71
2022/12/27 09:53:12;;;;;;;;;;;;;;;10.20;57.65;101531.31;4992443;28;7420;-71
2022/12/27 09:55:59;;;;;;;;;;;;;;;10.25;56.98;101525.72;4960374;28;6808;-71
2022/12/27 09:58:55;;;;;;;;;;;;;;;10.29;56.82;101521.69;4975552;28;7064;-71
2022/12/27 10:01:33;;;;;;;;;;;;;;;10.34;57.53;101528.03;4975721;28;6828;-71
2022/12/27 10:04:00;;;;;;;;;;;;;;;10.38;57.22;101531.66;4962976;28;6800;-71
2022/12/27 10:06:43;;;;;;;;;;;;;;;10.45;56.94;101522.75;4980312;28;6794;-71
2022/12/27 10:09:31;;;;;;;;;;;;;;;10.51;57.14;101524.06;4979953;28;6816;-71
2022/12/27 10:12:07;;;;;;;;;;;;;;;10.58;56.79;101525.34;4967968;28;7234;-71
2022/12/27 10:15:06;;;;;;;;;;;;;;;10.67;57.07;101519.91;4967035;28;6857;-71
2022/12/27 10:17:38;;;;;;;;;;;;;;;10.76;57.33;101517.06;4969821;28;6951;-71
2022/12/27 10:20:39;;;;;;;;;;;;;;;10.89;56.96;101511.94;4963688;28;6816;-71
2022/12/27 10:23:12;;;;;;;;;;;;;;;11.00;56.79;101514.31;4957208;28;11865;-71
2022/12/27 10:25:40;;;;;;;;;;;;;;;11.09;56.58;101505.53;4979151;28;6811;-71
2022/12/27 10:28:21;;;;;;;;;;;;;;;11.23;56.57;101508.06;4982783;28;6996;-71
2022/12/27 10:30:47;;;;;;;;;;;;;;;11.36;56.70;101514.88;4966444;28;6812;-71
2022/12/27 10:33:34;;;;;;;;;;;;;;;11.56;56.66;101513.56;4989591;28;6792;-71
2022/12/27 10:36:10;;;;;;;;;;;;;;;11.78;56.31;101518.34;4964912;28;6800;-71
2022/12/27 10:38:36;;;;;;;;;;;;;;;12.00;55.78;101511.91;4959339;28;7124;-72
2022/12/27 10:41:38;;;;;;;;;;;;;;;12.20;54.96;101505.41;4956966;28;6837;-71
2022/12/27 10:44:10;;;;;;;;;;;;;;;12.39;54.48;101501.34;4964446;28;7000;-71
2022/12/27 10:46:37;;;;;;;;;;;;;;;12.51;54.23;101498.59;4964897;28;6820;-71
2022/12/27 10:49:28;;;;;;;;;;;;;;;12.56;54.06;101510.06;4958792;28;7094;-71
2022/12/27 10:52:18;;;;;;;;;;;;;;;12.63;54.46;101504.44;4963756;28;7095;-71
2022/12/27 10:54:55;;;;;;;;;;;;;;;12.74;53.81;101504.16;4961019;28;6804;-71
2022/12/27 10:57:31;;;;;;;;;;;;;;;12.90;54.41;101501.66;4978598;28;7027;-71
2022/12/27 11:00:21;;;;;;;;;;;;;;;13.05;53.82;101496.50;4974868;28;7182;-71
2022/12/27 11:02:54;;;;;;;;;;;;;;;13.02;52.81;101508.31;4948203;28;11187;-71
2022/12/27 11:05:24;;;;;;;;;;;;;;;12.96;52.20;101501.13;4948932;28;7229;-71
2022/12/27 11:07:50;;;;;;;;;;;;;;;13.03;52.35;101497.19;4968348;28;6820;-71
2022/12/27 11:10:26;;;;;;;;;;;;;;;13.15;52.32;101502.16;4946771;28;6780;-71
2022/12/27 11:13:01;;;;;;;;;;;;;;;13.30;52.54;101507.25;4945839;28;6890;-71
2022/12/27 11:15:32;;;;;;;;;;;;;;;13.32;52.09;101498.81;4946991;28;6804;-71
2022/12/27 11:18:10;;;;;;;;;;;;;;;13.28;51.34;101498.56;4973579;28;6824;-71
2022/12/27 11:20:43;;;;;;;;;;;;;;;13.23;51.65;101512.84;4951657;28;6879;-71
2022/12/27 11:23:09;;;;;;;;;;;;;;;13.08;50.97;101495.78;4945087;28;6818;-72
2022/12/27 11:25:51;;;;;;;;;;;;;;;12.97;51.64;101502.91;4945016;28;6776;-70
2022/12/27 11:28:51;;;;;;;;;;;;;;;13.03;52.22;101502.34;4961927;28;6803;-71
2022/12/27 11:31:37;;;;;;;;;;;;;;;13.03;51.70;101492.06;4969623;28;6803;-71
2022/12/27 11:34:38;;;;;;;;;;;;;;;13.11;51.06;101485.66;4951511;28;6812;-70
2022/12/27 11:37:06;;;;;;;;;;;;;;;13.11;51.57;101488.22;4943210;28;6999;-71
2022/12/27 11:39:44;;;;;;;;;;;;;;;13.13;51.19;101488.31;4948412;28;7023;-71
2022/12/27 11:42:50;;;;;;;;;;;;;;;13.23;52.01;101488.00;4946993;28;7072;-71
2022/12/27 11:45:45;;;;;;;;;;;;;;;13.33;51.72;101484.25;4962739;28;7062;-71
2022/12/27 11:48:26;;;;;;;;;;;;;;;13.42;50.67;101487.34;4961762;28;6808;-72
2022/12/27 11:51:29;;;;;;;;;;;;;;;13.56;51.09;101488.06;4962403;28;7460;-71
2022/12/27 11:54:39;;;;;;;;;;;;;;;13.72;51.27;101491.47;4977863;28;7453;-72
2022/12/27 11:57:51;;;;;;;;;;;;;;;13.82;50.90;101479.97;4916179;28;7016;-70
2022/12/27 12:00:22;;;;;;;;;;;;;;;13.77;49.82;101484.88;4944921;28;7319;-71
2022/12/27 12:03:22;;;;;;;;;;;;;;;13.71;49.79;101482.88;4941990;28;7102;-70
2022/12/27 12:06:03;;;;;;;;;;;;;;;13.63;50.93;101484.16;4946355;28;6812;-71
2022/12/27 12:09:14;;;;;;;;;;;;;;;13.59;49.86;101471.91;4976845;28;6807;-71
2022/12/27 12:12:42;;;;;;;;;;;;;;;13.52;50.02;101487.84;4897339;28;7000;-71
2022/12/27 12:15:35;;;;;;;;;;;;;;;13.38;50.13;101482.81;4945267;28;6832;-71
2022/12/27 12:18:15;;;;;;;;;;;;;;;13.20;51.02;101485.28;4944199;28;7044;-71
2022/12/27 12:21:16;;;;;;;;;;;;;;;13.06;50.44;101484.53;4975661;28;8418;-71
2022/12/27 12:23:52;;;;;;;;;;;;;;;12.89;50.85;101479.31;4943728;28;8531;-70
2022/12/27 12:26:25;;;;;;;;;;;;;;;12.78;51.33;101470.13;4977353;28;8174;-71
2022/12/27 12:29:21;;;;;;;;;;;;;;;12.74;51.79;101468.16;4948832;28;6837;-71
2022/12/27 12:32:43;;;;;;;;;;;;;;;12.74;52.12;101465.59;4954000;28;7443;-70
2022/12/27 12:35:57;;;;;;;;;;;;;;;12.81;51.97;101454.84;4940865;28;7035;-71
2022/12/27 12:39:00;;;;;;;;;;;;;;;12.86;51.46;101463.72;4936776;28;9242;-71
2022/12/27 12:41:44;;;;;;;;;;;;;;;12.87;51.84;101456.88;4960989;28;7079;-72
2022/12/27 12:44:48;;;;;;;;;;;;;;;12.88;51.69;101448.34;4994390;28;8644;-72
2022/12/27 12:47:45;;;;;;;;;;;;;;;12.89;51.35;101452.69;4956999;28;7538;-72
2022/12/27 12:50:47;;;;;;;;;;;;;;;12.87;51.38;101438.84;4976809;28;6816;-71
2022/12/27 12:54:00;;;;;;;;;;;;;;;12.82;50.97;101433.47;4961329;28;6815;-71
2022/12/27 12:57:02;;;;;;;;;;;;;;;12.83;51.74;101426.63;4958218;28;6800;-70
2022/12/27 13:00:05;;;;;;;;;;;;;;;12.86;51.13;101431.94;4954366;28;7341;-72
2022/12/27 13:03:08;;;;;;;;;;;;;;;12.86;51.69;101422.56;4942971;28;6880;-71
2022/12/27 13:05:45;;;;;;;;;;;;;;;12.81;51.47;101421.41;4936058;28;6788;-70
2022/12/27 13:08:34;;;;;;;;;;;;;;;12.84;51.39;101415.53;4970660;28;7071;-71
2022/12/27 13:11:16;;;;;;;;;;;;;;;12.87;50.57;101414.03;4940873;28;6850;-71
2022/12/27 13:14:17;;;;;;;;;;;;;;;12.88;50.87;101396.88;4941935;28;7236;-71
2022/12/27 13:17:20;;;;;;;;;;;;;;;12.86;50.57;101395.94;4962052;28;6804;-72
2022/12/27 13:20:06;;;;;;;;;;;;;;;12.88;50.20;101394.31;4964805;28;6812;-73
2022/12/27 13:23:12;;;;;;;;;;;;;;;12.95;50.86;101398.13;4964686;28;7011;-71
2022/12/27 13:26:24;;;;;;;;;;;;;;;13.00;50.46;101386.38;4942624;28;7282;-71
2022/12/27 13:29:30;;;;;;;;;;;;;;;13.03;49.84;101394.25;4933943;28;6816;-71
2022/12/27 13:32:37;;;;;;;;;;;;;;;13.05;50.18;101382.38;4951291;28;6983;-72
2022/12/27 13:36:20;;;;;;;;;;;;;;;13.04;50.39;101380.63;4990152;28;6808;-71
2022/12/27 13:39:22;;;;;;;;;;;;;;;13.03;49.81;101368.53;4905911;29;6804;-71
2022/12/27 13:42:41;;;;;;;;;;;;;;;13.03;49.63;101366.84;4900719;29;6817;-72
2022/12/27 13:45:25;;;;;;;;;;;;;;;13.02;50.02;101361.59;4956357;28;6896;-71
2022/12/27 13:48:55;;;;;;;;;;;;;;;13.04;50.35;101362.59;4965610;28;7233;-72
2022/12/27 13:51:39;;;;;;;;;;;;;;;13.03;50.12;101363.38;4964699;28;7080;-71
2022/12/27 13:54:38;;;;;;;;;;;;;;;13.04;50.26;101366.03;4959166;28;6827;-72
2022/12/27 13:58:07;;;;;;;;;;;;;;;13.05;49.56;101361.78;4957156;28;6811;-71
2022/12/27 14:01:22;;;;;;;;;;;;;;;13.03;50.00;101360.81;4962503;28;7025;-71
2022/12/27 14:04:33;;;;;;;;;;;;;;;12.95;50.32;101360.41;4961795;28;6812;-70
2022/12/27 14:07:57;;;;;;;;;;;;;;;12.92;49.79;101350.81;4960563;28;6935;-71
2022/12/27 14:10:45;;;;;;;;;;;;;;;12.89;49.37;101355.81;4951043;28;6819;-71
2022/12/27 14:13:14;;;;;;;;;;;;;;;12.87;49.40;101362.56;4957339;28;6800;-72
2022/12/27 14:16:11;;;;;;;;;;;;;;;12.85;49.17;101348.75;4964912;28;6841;-71
2022/12/27 14:19:19;;;;;;;;;;;;;;;12.83;49.96;101352.91;4960269;28;7003;-72
2022/12/27 14:22:19;;;;;;;;;;;;;;;12.81;50.18;101346.78;4960978;28;6808;-71
2022/12/27 14:25:38;;;;;;;;;;;;;;;12.77;49.66;101348.31;4958396;28;7201;-71
2022/12/27 14:28:25;;;;;;;;;;;;;;;12.76;50.01;101355.97;4958549;28;7135;-72
2022/12/27 14:31:22;;;;;;;;;;;;;;;12.75;49.60;101342.22;4958313;28;6800;-71
2022/12/27 14:34:15;;;;;;;;;;;;;;;12.73;50.28;101348.06;4957639;28;6800;-71
2022/12/27 14:37:08;;;;;;;;;;;;;;;12.70;49.98;101343.66;4956443;28;7451;-71
2022/12/27 14:40:28;;;;;;;;;;;;;;;12.70;49.87;101343.66;4973300;28;6999;-71
2022/12/27 14:43:21;;;;;;;;;;;;;;;12.62;49.87;101340.66;4961635;28;6974;-71
2022/12/27 14:46:22;;;;;;;;;;;;;;;12.58;49.60;101343.88;4956682;28;6816;-71
2022/12/27 14:48:56;;;;;;;;;;;;;;;12.52;50.43;101343.53;4960122;28;6811;-72
2022/12/27 14:51:49;;;;;;;;;;;;;;;12.45;50.54;101349.13;4959327;28;6800;-71
2022/12/27 14:54:38;;;;;;;;;;;;;;;12.36;50.04;101346.94;4961221;28;7125;-71
2022/12/27 14:57:44;;;;;;;;;;;;;;;12.32;50.64;101345.88;4963684;28;6808;-71
2022/12/27 15:00:18;;;;;;;;;;;;;;;12.27;50.15;101351.56;4964147;28;6879;-71
2022/12/27 15:03:07;;;;;;;;;;;;;;;12.22;50.09;101349.63;4973906;28;7058;-72
2022/12/27 15:05:44;;;;;;;;;;;;;;;12.19;50.07;101343.41;4964461;28;6812;-72
2022/12/27 15:08:44;;;;;;;;;;;;;;;12.15;50.48;101347.50;4962977;28;6943;-71
2022/12/27 15:11:41;;;;;;;;;;;;;;;12.11;50.82;101339.53;4960938;28;7402;-71
2022/12/27 15:15:03;;;;;;;;;;;;;;;12.04;50.72;101343.44;4957994;28;6811;-72
2022/12/27 15:17:58;;;;;;;;;;;;;;;12.00;50.03;101342.34;4958901;28;6816;-71
2022/12/27 15:21:03;;;;;;;;;;;;;;;11.97;50.31;101333.56;4958789;28;7115;-72
2022/12/27 15:23:53;;;;;;;;;;;;;;;11.97;49.96;101325.88;4950184;28;6892;-72
2022/12/27 15:26:35;;;;;;;;;;;;;;;11.93;50.10;101315.41;4980872;28;6796;-71
2022/12/27 15:29:18;;;;;;;;;;;;;;;11.89;50.32;101312.59;4964801;28;7106;-72
2022/12/27 15:31:44;;;;;;;;;;;;;;;11.87;50.50;101312.50;4980675;28;6988;-72
2022/12/27 15:34:37;;;;;;;;;;;;;;;11.85;50.09;101313.19;4962481;28;7811;-72
2022/12/27 15:37:04;;;;;;;;;;;;;;;11.79;50.76;101317.19;4959437;28;6816;-71
2022/12/27 15:39:32;;;;;;;;;;;;;;;11.75;50.52;101309.22;4961767;28;6856;-72